Time;durP1;ratioP1;P1;durP2;ratioP2;P2;SDS_P1;SDS_P2;PMS_P1;PMS_P2;Temp;Humidity;BMP_temperature;BMP_pressure;BME280_temperature;BME280_humidity;BME280_pressure;Samples;Min_cycle;Max_cycle;Signal;HPM_P1;HPM_P2
2022/12/03 14:18:46;;;;;;;5.28;3.22;;;12.50;95.80;;;;;;5092057;27;20425;-93
2022/12/03 14:21:11;;;;;;;10.60;3.05;;;12.40;96.20;;;;;;5054767;28;20021;-93
2022/12/03 14:23:37;;;;;;;4.32;2.85;;;12.40;95.80;;;;;;5060988;28;20342;-93
2022/12/03 14:26:03;;;;;;;7.28;3.58;;;12.40;95.70;;;;;;5070070;28;20500;-93
2022/12/03 14:28:28;;;;;;;5.95;3.28;;;12.40;95.60;;;;;;5068345;28;20024;-93
2022/12/03 14:30:54;;;;;;;9.43;3.28;;;12.40;95.60;;;;;;5068783;28;20017;-93
2022/12/03 14:33:19;;;;;;;10.27;3.05;;;12.40;95.50;;;;;;5063592;28;20052;-93
2022/12/03 14:35:45;;;;;;;4.45;2.55;;;12.40;95.50;;;;;;5050146;28;20013;-93
2022/12/03 14:38:10;;;;;;;5.63;3.42;;;12.40;95.40;;;;;;5065037;28;20025;-93
2022/12/03 14:40:36;;;;;;;8.90;2.92;;;12.40;95.40;;;;;;5065602;28;20017;-92
2022/12/03 14:43:02;;;;;;;5.55;3.17;;;12.40;95.40;;;;;;5071948;28;20083;-93
2022/12/03 14:45:28;;;;;;;6.90;3.00;;;12.40;95.40;;;;;;5068531;28;20524;-93
2022/12/03 14:47:54;;;;;;;5.32;3.20;;;12.40;95.40;;;;;;5068871;28;20567;-93
2022/12/03 14:50:19;;;;;;;6.35;2.55;;;12.40;95.40;;;;;;5050742;28;20036;-93
2022/12/03 14:52:45;;;;;;;7.18;3.13;;;12.30;95.40;;;;;;5065412;28;20017;-93
2022/12/03 14:55:10;;;;;;;5.43;3.15;;;12.30;95.40;;;;;;5054282;28;20025;-94
2022/12/03 14:57:36;;;;;;;6.03;3.05;;;12.30;95.30;;;;;;5066565;28;20463;-93
2022/12/03 15:00:03;;;;;;;7.75;3.25;;;12.40;95.40;;;;;;5054101;28;20039;-93
2022/12/03 15:02:29;;;;;;;6.05;3.10;;;12.30;95.30;;;;;;5085999;28;20658;-92
2022/12/03 15:04:54;;;;;;;5.53;3.08;;;12.30;95.30;;;;;;5068705;28;20012;-93
2022/12/03 15:07:20;;;;;;;9.95;3.00;;;12.30;95.30;;;;;;5085212;28;20013;-93
2022/12/03 15:09:45;;;;;;;6.40;3.25;;;12.30;95.30;;;;;;5063497;28;20040;-93
2022/12/03 15:12:11;;;;;;;5.45;2.90;;;12.30;95.30;;;;;;5048609;28;20470;-92
2022/12/03 15:14:37;;;;;;;5.88;3.45;;;12.30;95.30;;;;;;5054114;28;20032;-92
2022/12/03 15:17:02;;;;;;;9.68;2.92;;;12.30;95.30;;;;;;5048559;28;20084;-92
2022/12/03 15:19:28;;;;;;;8.00;3.10;;;12.30;95.30;;;;;;5058501;28;20035;-92
2022/12/03 15:21:53;;;;;;;5.50;3.00;;;12.30;95.30;;;;;;5070273;28;20053;-92
2022/12/03 15:24:19;;;;;;;5.93;3.10;;;12.30;95.30;;;;;;5068647;28;20053;-93
2022/12/03 15:26:44;;;;;;;5.20;2.90;;;12.30;95.40;;;;;;5062846;28;20048;-92
2022/12/03 15:29:10;;;;;;;4.57;2.80;;;12.30;95.30;;;;;;5044151;28;20025;-92
2022/12/03 15:31:36;;;;;;;7.68;3.08;;;12.30;95.30;;;;;;5034546;28;20024;-93
2022/12/03 15:34:01;;;;;;;6.45;3.20;;;12.30;95.30;;;;;;5034224;28;20033;-93
2022/12/03 15:36:27;;;;;;;5.88;3.15;;;12.30;95.30;;;;;;5045797;28;20033;-93
2022/12/03 15:38:52;;;;;;;6.13;3.17;;;12.30;95.30;;;;;;5034630;28;20014;-91
2022/12/03 15:41:23;;;;;;;5.63;3.17;;;12.30;95.30;;;;;;5042404;28;20017;-92
2022/12/03 15:43:51;;;;;;;6.03;3.08;;;12.30;95.30;;;;;;5042059;28;20018;-92
2022/12/03 15:46:18;;;;;;;9.13;3.65;;;12.30;95.30;;;;;;5038454;28;20027;-93
2022/12/03 15:48:43;;;;;;;8.55;3.28;;;12.30;95.30;;;;;;5060923;28;20475;-93
2022/12/03 15:51:09;;;;;;;11.05;4.05;;;12.30;95.30;;;;;;5035945;28;20116;-91
2022/12/03 15:53:35;;;;;;;5.65;2.88;;;12.30;95.30;;;;;;5071206;28;20024;-92
2022/12/03 15:56:00;;;;;;;6.13;2.78;;;12.30;95.30;;;;;;5055993;28;20031;-93
2022/12/03 15:58:26;;;;;;;6.20;2.78;;;12.30;95.30;;;;;;5055597;28;20020;-93
2022/12/03 16:00:51;;;;;;;6.45;3.00;;;12.30;95.30;;;;;;5069500;28;20020;-92
2022/12/03 16:03:17;;;;;;;7.55;3.63;;;12.30;95.30;;;;;;5043103;28;20367;-92
2022/12/03 16:05:42;;;;;;;6.72;3.80;;;12.30;95.30;;;;;;5046704;28;20488;-93
2022/12/03 16:08:08;;;;;;;5.63;3.20;;;12.30;95.40;;;;;;5061404;28;20032;-93
2022/12/03 16:10:33;;;;;;;5.72;3.15;;;12.30;95.40;;;;;;5060032;28;20036;-94
2022/12/03 16:12:59;;;;;;;7.70;3.00;;;12.30;95.30;;;;;;5037274;28;20022;-94
2022/12/03 16:15:24;;;;;;;5.95;3.17;;;12.30;95.30;;;;;;5070781;28;20021;-93
2022/12/03 16:17:50;;;;;;;6.25;3.25;;;12.30;95.30;;;;;;5063577;28;20374;-93
2022/12/03 16:20:15;;;;;;;7.38;3.15;;;12.30;95.30;;;;;;5034018;28;20021;-92
2022/12/03 16:22:41;;;;;;;7.38;3.10;;;12.20;95.30;;;;;;5034757;28;20347;-93
2022/12/03 16:25:07;;;;;;;5.70;2.92;;;12.30;95.40;;;;;;5048637;28;20131;-92
2022/12/03 16:27:32;;;;;;;5.80;3.00;;;12.30;95.30;;;;;;5054406;28;20021;-92
2022/12/03 16:29:58;;;;;;;5.40;2.90;;;12.20;95.30;;;;;;5071173;28;20021;-93
2022/12/03 16:32:24;;;;;;;5.43;2.45;;;12.20;95.30;;;;;;5059219;28;20433;-93
2022/12/03 16:34:49;;;;;;;9.63;3.53;;;12.20;95.30;;;;;;5034174;28;20466;-93
2022/12/03 16:37:15;;;;;;;5.28;2.92;;;12.20;95.30;;;;;;5033595;28;20120;-93
2022/12/03 16:39:41;;;;;;;6.38;3.08;;;12.20;95.30;;;;;;5034378;28;20036;-93
2022/12/03 16:42:06;;;;;;;6.93;3.17;;;12.30;95.30;;;;;;5033835;28;20025;-93
2022/12/03 16:44:52;;;;;;;6.63;3.47;;;12.20;95.30;;;;;;5033780;28;20351;-94
2022/12/03 16:47:17;;;;;;;5.43;2.83;;;12.20;95.30;;;;;;5034522;28;20021;-93
2022/12/03 16:49:43;;;;;;;11.43;3.03;;;12.20;95.30;;;;;;5050112;28;20024;-92
2022/12/03 16:52:08;;;;;;;7.07;3.10;;;12.20;95.30;;;;;;5054106;28;20028;-92
2022/12/03 16:54:34;;;;;;;7.40;3.33;;;12.20;95.30;;;;;;5053251;28;20021;-91
2022/12/03 16:57:05;;;;;;;6.15;3.28;;;12.20;95.30;;;;;;5059263;28;20021;-93
2022/12/03 16:59:31;;;;;;;6.75;3.15;;;12.20;95.40;;;;;;5066758;28;20013;-94
2022/12/03 17:01:56;;;;;;;5.70;3.30;;;12.20;95.40;;;;;;5067180;28;20056;-94
2022/12/03 17:04:22;;;;;;;6.10;3.42;;;12.20;95.40;;;;;;5062876;28;20044;-94
2022/12/03 17:06:47;;;;;;;8.80;3.22;;;12.20;95.40;;;;;;5066763;28;20084;-95
2022/12/03 17:09:15;;;;;;;6.65;2.95;;;12.20;95.60;;;;;;5061611;28;20017;-95
2022/12/03 17:11:40;;;;;;;7.20;3.80;;;12.20;95.60;;;;;;5041493;28;20021;-93
2022/12/03 17:14:06;;;;;;;9.10;3.58;;;12.20;95.50;;;;;;5041371;28;20347;-94
2022/12/03 17:16:31;;;;;;;5.97;3.35;;;12.20;95.50;;;;;;5042683;28;20048;-94
2022/12/03 17:18:57;;;;;;;11.30;3.72;;;12.20;95.70;;;;;;5059535;28;20017;-93
2022/12/03 17:21:23;;;;;;;7.40;3.65;;;12.20;95.50;;;;;;5064008;28;20029;-94
2022/12/03 17:23:49;;;;;;;7.78;3.08;;;12.20;95.40;;;;;;5067490;28;20028;-94
2022/12/03 17:26:16;;;;;;;6.63;3.38;;;12.20;95.40;;;;;;5069751;28;20077;-95
2022/12/03 17:28:42;;;;;;;6.53;3.08;;;12.20;95.40;;;;;;5052110;28;20036;-95
2022/12/03 17:31:08;;;;;;;8.73;4.20;;;12.20;95.50;;;;;;5058426;28;20028;-95
2022/12/03 17:33:34;;;;;;;7.30;3.33;;;12.20;95.40;;;;;;5050197;28;20044;-93
2022/12/03 17:36:00;;;;;;;10.82;3.60;;;12.20;95.40;;;;;;5062975;28;20013;-92
2022/12/03 17:38:25;;;;;;;8.25;3.53;;;12.20;95.40;;;;;;5062337;28;20421;-94
2022/12/03 17:40:51;;;;;;;10.82;4.20;;;12.20;95.40;;;;;;5059254;28;20023;-94
2022/12/03 17:43:16;;;;;;;8.95;4.20;;;12.20;95.40;;;;;;5069352;28;20017;-92
2022/12/03 17:45:43;;;;;;;11.93;3.85;;;12.20;95.50;;;;;;5061841;28;20064;-95
2022/12/03 17:48:08;;;;;;;8.27;3.88;;;12.20;95.50;;;;;;5061172;28;20021;-95
2022/12/03 17:50:34;;;;;;;6.35;3.35;;;12.20;95.50;;;;;;5063796;28;20041;-95
2022/12/03 17:53:00;;;;;;;7.68;3.65;;;12.20;95.50;;;;;;5066925;28;20036;-95
2022/12/03 17:55:25;;;;;;;10.77;4.55;;;12.20;95.50;;;;;;5045153;28;20025;-94
2022/12/03 17:57:51;;;;;;;9.57;4.55;;;12.20;95.50;;;;;;5050946;28;20029;-94
2022/12/03 18:00:17;;;;;;;9.25;4.00;;;12.20;95.50;;;;;;5071614;28;20021;-94
2022/12/03 18:02:43;;;;;;;13.25;4.28;;;12.20;95.50;;;;;;5074351;28;20028;-95
2022/12/03 18:05:09;;;;;;;13.95;4.28;;;12.20;95.50;;;;;;5077076;28;20025;-94
2022/12/03 18:07:34;;;;;;;10.93;4.43;;;12.20;95.50;;;;;;5053351;28;20021;-94
2022/12/03 18:10:00;;;;;;;9.88;3.83;;;12.20;95.50;;;;;;5043275;28;20029;-94
2022/12/03 18:12:26;;;;;;;11.15;4.20;;;12.20;95.50;;;;;;5050055;28;20029;-93
2022/12/03 18:14:51;;;;;;;11.43;4.47;;;12.20;95.40;;;;;;5057662;28;20124;-94
2022/12/03 18:17:17;;;;;;;8.98;4.47;;;12.20;95.40;;;;;;5057541;28;20047;-94
2022/12/03 18:19:42;;;;;;;9.68;4.55;;;12.20;95.40;;;;;;5057193;28;20029;-93
2022/12/03 18:22:08;;;;;;;7.13;4.13;;;12.20;95.40;;;;;;5041829;28;20030;-94
2022/12/03 18:24:34;;;;;;;7.75;4.05;;;12.20;95.40;;;;;;5036172;28;20481;-93
2022/12/03 18:26:59;;;;;;;12.48;4.78;;;12.10;95.40;;;;;;5038744;28;20032;-91
2022/12/03 18:29:25;;;;;;;9.02;3.70;;;12.20;95.40;;;;;;5046714;28;20087;-94
2022/12/03 18:31:51;;;;;;;12.63;4.45;;;12.20;95.40;;;;;;5045847;28;20025;-94
2022/12/03 18:34:16;;;;;;;10.13;4.55;;;12.20;95.40;;;;;;5052067;28;20075;-94
2022/12/03 18:36:42;;;;;;;9.50;4.55;;;12.20;95.40;;;;;;5047094;28;20071;-93
2022/12/03 18:39:17;;;;;;;13.00;4.30;;;12.20;95.40;;;;;;5034906;28;20025;-93
2022/12/03 18:41:42;;;;;;;9.50;3.88;;;12.10;95.30;;;;;;5052841;28;20504;-92
2022/12/03 18:44:09;;;;;;;8.27;4.50;;;12.10;95.30;;;;;;5050611;28;20025;-93
2022/12/03 18:46:35;;;;;;;10.02;4.28;;;12.10;95.40;;;;;;5036402;28;20026;-92
2022/12/03 18:49:00;;;;;;;9.43;4.32;;;12.10;95.30;;;;;;5049780;28;20490;-93
2022/12/03 18:51:27;;;;;;;11.05;4.32;;;12.10;95.50;;;;;;5069170;28;20029;-93
2022/12/03 18:53:53;;;;;;;9.80;4.15;;;12.10;95.30;;;;;;5068099;28;20035;-93
2022/12/03 18:56:19;;;;;;;10.75;3.90;;;12.20;95.40;;;;;;5057249;28;20481;-93
2022/12/03 18:58:44;;;;;;;9.32;4.72;;;12.10;95.40;;;;;;5075534;28;20021;-93
2022/12/03 19:01:18;;;;;;;11.23;4.25;;;12.10;95.40;;;;;;5047968;28;20017;-93
2022/12/03 19:03:44;;;;;;;12.18;4.32;;;12.10;95.40;;;;;;5061152;28;20044;-93
2022/12/03 19:06:15;;;;;;;12.95;4.72;;;12.10;95.40;;;;;;5070914;28;20482;-92
2022/12/03 19:08:42;;;;;;;8.85;3.83;;;12.10;95.40;;;;;;5066049;28;20014;-93
2022/12/03 19:11:09;;;;;;;10.68;4.40;;;12.10;95.40;;;;;;5039590;28;20132;-95
2022/12/03 19:13:34;;;;;;;8.45;4.15;;;12.10;95.40;;;;;;5073254;28;20032;-94
2022/12/03 19:16:02;;;;;;;7.15;4.20;;;12.20;95.50;;;;;;5077187;28;20027;-93
2022/12/03 19:18:27;;;;;;;8.57;4.30;;;12.10;95.50;;;;;;5078549;28;20039;-92
2022/12/03 19:20:53;;;;;;;9.30;4.43;;;12.10;95.50;;;;;;5079290;28;20024;-93
2022/12/03 19:23:19;;;;;;;11.10;4.38;;;12.10;95.50;;;;;;5077644;28;20031;-92
2022/12/03 19:26:01;;;;;;;9.13;3.95;;;12.10;95.50;;;;;;5077438;28;20178;-92
2022/12/03 19:28:27;;;;;;;10.23;3.97;;;12.10;95.50;;;;;;5056610;28;20063;-93
2022/12/03 19:30:56;;;;;;;8.80;3.72;;;12.10;95.50;;;;;;5054151;28;20017;-93
2022/12/03 19:33:22;;;;;;;13.25;4.25;;;12.10;95.50;;;;;;5041843;28;20021;-94
2022/12/03 19:35:48;;;;;;;9.23;4.30;;;12.10;95.50;;;;;;5041131;28;20037;-93
2022/12/03 19:38:13;;;;;;;8.63;3.92;;;12.10;95.50;;;;;;5063193;28;20371;-94
2022/12/03 19:40:39;;;;;;;7.63;3.72;;;12.10;95.50;;;;;;5048557;28;20032;-94
2022/12/03 19:43:04;;;;;;;8.00;3.95;;;12.10;95.50;;;;;;5054784;28;20029;-95
2022/12/03 19:45:30;;;;;;;8.60;4.35;;;12.10;95.50;;;;;;5067593;28;20081;-94
2022/12/03 19:47:55;;;;;;;10.18;4.18;;;12.10;95.50;;;;;;5066623;28;20021;-94
2022/12/03 19:50:21;;;;;;;6.72;3.67;;;12.10;95.50;;;;;;5056903;28;20021;-95
2022/12/03 19:52:47;;;;;;;14.68;4.75;;;12.10;95.50;;;;;;5054642;28;20029;-94
2022/12/03 19:55:12;;;;;;;8.38;3.90;;;12.10;95.50;;;;;;5056618;28;20078;-94
2022/12/03 19:57:38;;;;;;;9.27;4.15;;;12.10;95.50;;;;;;5048702;28;20033;-93
2022/12/03 20:00:05;;;;;;;8.15;4.05;;;12.10;95.50;;;;;;5050431;28;20029;-92
2022/12/03 20:02:31;;;;;;;8.38;4.63;;;12.10;95.50;;;;;;5052777;28;20021;-93
2022/12/03 20:04:56;;;;;;;10.98;3.67;;;12.10;95.50;;;;;;5054138;28;20018;-93
2022/12/03 20:07:22;;;;;;;9.80;3.83;;;12.10;95.50;;;;;;5045902;28;20025;-91
2022/12/03 20:09:50;;;;;;;8.23;3.75;;;12.10;95.50;;;;;;5040765;28;20032;-94
2022/12/03 20:12:16;;;;;;;10.38;4.47;;;12.10;95.50;;;;;;5055614;28;20401;-94
2022/12/03 20:14:44;;;;;;;9.02;4.00;;;12.10;95.50;;;;;;5050214;28;20030;-94
2022/12/03 20:20:35;;;;;;;9.77;4.10;;;12.10;95.50;;;;;;5061824;28;20028;-94
2022/12/03 20:23:07;;;;;;;14.57;3.80;;;12.10;95.50;;;;;;5051925;28;20017;-92
2022/12/03 20:25:36;;;;;;;10.85;3.85;;;12.10;95.50;;;;;;5056793;28;20279;-94
2022/12/03 20:28:01;;;;;;;6.25;3.63;;;12.10;95.50;;;;;;5047816;28;20034;-93
2022/12/03 20:30:27;;;;;;;9.30;4.07;;;12.10;95.50;;;;;;5055666;28;20032;-94
2022/12/03 20:32:52;;;;;;;10.98;4.18;;;12.10;95.50;;;;;;5036109;28;20017;-95
2022/12/03 20:35:18;;;;;;;10.52;4.43;;;12.10;95.50;;;;;;5035512;28;20026;-94
2022/12/03 20:37:43;;;;;;;9.45;4.03;;;12.10;95.50;;;;;;5033869;28;20088;-93
2022/12/03 20:40:10;;;;;;;9.05;4.00;;;12.00;95.50;;;;;;5033789;28;20025;-94
2022/12/03 20:42:35;;;;;;;7.88;4.32;;;12.00;95.50;;;;;;5033831;28;20031;-93
2022/12/03 20:45:01;;;;;;;9.85;4.95;;;12.00;95.50;;;;;;5034142;28;20025;-94
2022/12/03 20:47:26;;;;;;;8.88;4.53;;;12.00;95.50;;;;;;5033593;28;20021;-94
2022/12/03 20:49:52;;;;;;;9.55;4.72;;;12.00;95.60;;;;;;5035838;28;20025;-92
2022/12/03 20:52:17;;;;;;;12.77;4.03;;;12.10;95.70;;;;;;5033157;28;20129;-94
2022/12/03 20:54:43;;;;;;;12.23;4.85;;;12.10;95.70;;;;;;5039990;28;20036;-94
2022/12/03 20:57:09;;;;;;;17.52;4.68;;;12.10;95.60;;;;;;5051737;28;20029;-93
2022/12/03 20:59:34;;;;;;;13.23;4.15;;;12.10;95.60;;;;;;5032411;28;20465;-93
2022/12/03 21:02:00;;;;;;;19.08;5.25;;;12.10;95.60;;;;;;5032578;28;20148;-94
2022/12/03 21:04:25;;;;;;;15.40;4.57;;;12.10;95.80;;;;;;5032519;28;20088;-94
2022/12/03 21:06:51;;;;;;;24.23;4.63;;;12.10;95.80;;;;;;5032579;28;20032;-94
2022/12/03 21:09:16;;;;;;;20.17;4.85;;;12.10;95.80;;;;;;5032313;28;20061;-94
2022/12/03 21:11:42;;;;;;;17.83;5.00;;;12.10;95.80;;;;;;5032615;28;20075;-94
2022/12/03 21:14:09;;;;;;;15.43;4.68;;;12.10;95.80;;;;;;5032571;28;20091;-93
2022/12/03 21:16:38;;;;;;;19.25;5.50;;;12.10;95.80;;;;;;5032198;28;20120;-94
2022/12/03 21:19:05;;;;;;;16.40;5.00;;;12.10;95.80;;;;;;5032238;28;20031;-94
2022/12/03 21:21:31;;;;;;;18.73;5.85;;;12.10;95.80;;;;;;5032377;28;20045;-94
2022/12/03 21:23:57;;;;;;;20.38;6.70;;;12.10;95.80;;;;;;5032462;28;20335;-94
2022/12/03 21:26:23;;;;;;;17.35;6.00;;;12.10;95.90;;;;;;5050303;28;20462;-94
2022/12/03 21:28:51;;;;;;;15.82;6.00;;;12.10;95.80;;;;;;5051954;28;20416;-93
2022/12/03 21:31:19;;;;;;;24.30;6.28;;;12.10;95.80;;;;;;5052064;28;20115;-95
2022/12/03 21:33:45;;;;;;;12.73;5.40;;;12.10;95.80;;;;;;5052237;28;20021;-94
2022/12/03 21:36:13;;;;;;;20.95;4.95;;;12.10;95.90;;;;;;5041871;28;20029;-93
2022/12/03 21:38:40;;;;;;;17.40;5.40;;;12.10;95.90;;;;;;5049571;28;20025;-94
2022/12/03 21:41:06;;;;;;;19.95;5.65;;;12.10;95.90;;;;;;5050271;28;20490;-94
2022/12/03 21:43:32;;;;;;;21.02;5.30;;;12.10;95.90;;;;;;5032552;28;20029;-94
2022/12/03 21:45:58;;;;;;;22.65;6.28;;;12.10;96.00;;;;;;5050409;28;20041;-93
2022/12/03 21:48:24;;;;;;;22.10;5.15;;;12.10;96.00;;;;;;5035681;28;20163;-93
2022/12/03 21:50:59;;;;;;;18.08;5.22;;;12.10;96.00;;;;;;5048954;28;20018;-94
2022/12/03 21:53:25;;;;;;;20.23;4.85;;;12.10;96.00;;;;;;5048309;28;20021;-94
2022/12/03 21:55:51;;;;;;;14.70;4.97;;;12.10;96.00;;;;;;5039087;28;20020;-93
2022/12/03 21:58:16;;;;;;;15.98;5.28;;;12.10;96.00;;;;;;5051295;28;20071;-93
2022/12/03 22:00:42;;;;;;;13.50;6.10;;;12.10;96.00;;;;;;5051851;28;20029;-94
2022/12/03 22:03:07;;;;;;;21.63;5.10;;;12.10;96.00;;;;;;5051371;28;20416;-93
2022/12/03 22:05:33;;;;;;;22.45;5.50;;;12.10;96.00;;;;;;5052581;28;20090;-93
2022/12/03 22:07:58;;;;;;;20.75;6.05;;;12.10;96.10;;;;;;5051093;28;20025;-93
2022/12/03 22:10:24;;;;;;;16.33;5.18;;;12.20;96.10;;;;;;5051875;28;20045;-94
2022/12/03 22:12:49;;;;;;;17.17;5.40;;;12.10;96.10;;;;;;5051360;28;20478;-93
2022/12/03 22:15:15;;;;;;;12.95;4.88;;;12.10;96.10;;;;;;5051165;28;20021;-94
2022/12/03 22:17:40;;;;;;;15.00;5.50;;;12.10;96.10;;;;;;5051006;28;20394;-94
2022/12/03 22:20:07;;;;;;;21.75;5.75;;;12.10;96.10;;;;;;5051217;28;20017;-93
2022/12/03 22:22:32;;;;;;;17.98;6.53;;;12.10;96.20;;;;;;5051156;28;20128;-93
2022/12/03 22:24:58;;;;;;;12.82;5.28;;;12.10;96.50;;;;;;5048411;28;20029;-94
2022/12/03 22:27:23;;;;;;;15.48;5.00;;;12.20;96.20;;;;;;5043303;28;20025;-93
2022/12/03 22:29:49;;;;;;;20.48;5.85;;;12.10;96.10;;;;;;5052941;28;20033;-93
2022/12/03 22:32:14;;;;;;;14.52;5.55;;;12.10;96.20;;;;;;5051048;28;20563;-94
2022/12/03 22:34:43;;;;;;;14.52;5.22;;;12.10;96.20;;;;;;5067906;28;20570;-94
2022/12/03 22:37:08;;;;;;;18.88;5.65;;;12.10;96.20;;;;;;5049786;28;20398;-94
2022/12/03 22:39:34;;;;;;;14.13;5.22;;;12.10;96.20;;;;;;5050360;28;20036;-94
2022/12/03 22:41:59;;;;;;;17.00;5.72;;;12.10;96.20;;;;;;5035225;28;20026;-93
2022/12/03 22:44:25;;;;;;;11.73;4.93;;;12.10;96.20;;;;;;5035115;28;20544;-94
2022/12/03 22:46:51;;;;;;;16.55;5.53;;;12.10;96.20;;;;;;5034919;28;20398;-94
2022/12/03 22:49:16;;;;;;;17.13;5.80;;;12.10;96.20;;;;;;5034762;28;20021;-93
2022/12/03 22:51:46;;;;;;;16.58;5.15;;;12.10;96.20;;;;;;5034999;28;20163;-93
2022/12/03 22:54:11;;;;;;;12.70;5.43;;;12.20;96.30;;;;;;5035067;28;20037;-94
2022/12/03 22:56:37;;;;;;;13.80;4.80;;;12.20;96.20;;;;;;5047408;28;20025;-93
2022/12/03 22:59:03;;;;;;;19.05;5.28;;;12.10;96.20;;;;;;5054583;28;20044;-93
2022/12/03 23:01:32;;;;;;;18.13;5.63;;;12.10;96.20;;;;;;5056009;28;20108;-93
2022/12/03 23:03:58;;;;;;;16.38;4.53;;;12.10;96.20;;;;;;5055774;28;20025;-93
2022/12/03 23:06:24;;;;;;;16.90;5.78;;;12.20;96.60;;;;;;5055265;28;20027;-94
2022/12/03 23:08:50;;;;;;;12.23;4.80;;;12.10;96.20;;;;;;5046673;28;20040;-94
2022/12/03 23:11:16;;;;;;;13.38;4.95;;;12.20;96.20;;;;;;5051461;28;20479;-93
2022/12/03 23:13:42;;;;;;;8.80;4.40;;;12.20;96.30;;;;;;5051592;28;20026;-92
2022/12/03 23:16:13;;;;;;;15.40;5.70;;;12.10;96.30;;;;;;5059046;28;20031;-93
2022/12/03 23:18:39;;;;;;;18.42;5.45;;;12.20;96.40;;;;;;5054299;28;20059;-95
2022/12/03 23:21:05;;;;;;;11.57;5.07;;;12.20;96.40;;;;;;5052709;28;20037;-94
2022/12/03 23:23:30;;;;;;;15.77;4.90;;;12.10;96.40;;;;;;5055503;28;20017;-93
2022/12/03 23:26:06;;;;;;;20.38;5.40;;;12.20;96.40;;;;;;5064518;28;20022;-93
2022/12/03 23:28:33;;;;;;;18.02;4.45;;;12.20;96.40;;;;;;5034231;28;20494;-93
2022/12/03 23:30:59;;;;;;;13.85;5.25;;;12.20;96.40;;;;;;5047128;28;20037;-94
2022/12/03 23:33:25;;;;;;;16.50;4.57;;;12.20;96.30;;;;;;5054168;28;20021;-93
2022/12/03 23:35:50;;;;;;;15.10;4.80;;;12.20;96.40;;;;;;5054007;28;20401;-94
2022/12/03 23:38:16;;;;;;;14.38;5.82;;;12.20;96.40;;;;;;5055041;28;20474;-93
2022/12/03 23:40:42;;;;;;;17.13;5.60;;;12.20;96.30;;;;;;5053924;28;20071;-93
2022/12/03 23:43:07;;;;;;;15.25;4.82;;;12.20;96.30;;;;;;5053863;28;20017;-93
2022/12/03 23:45:33;;;;;;;15.63;5.63;;;12.20;96.30;;;;;;5054162;28;20024;-93
2022/12/03 23:47:59;;;;;;;10.18;4.57;;;12.20;96.30;;;;;;5053621;28;20025;-94
2022/12/03 23:50:26;;;;;;;16.35;4.78;;;12.20;96.40;;;;;;5053539;28;20029;-93
2022/12/03 23:52:52;;;;;;;13.52;4.68;;;12.20;96.30;;;;;;5053666;28;20116;-94
2022/12/03 23:55:18;;;;;;;13.88;4.68;;;12.20;96.30;;;;;;5053916;28;20112;-94
2022/12/03 23:57:43;;;;;;;11.52;5.05;;;12.20;96.30;;;;;;5050287;28;20091;-94
